createdAt,value
2019-03-06T00:00:37.067Z,98.25
2019-03-06T00:01:38.390Z,97.97
2019-03-06T00:02:38.869Z,98.07
2019-03-06T00:03:39.625Z,97.88
2019-03-06T00:04:40.980Z,97.97
2019-03-06T00:05:41.266Z,97.78
2019-03-06T00:06:41.742Z,97.88
2019-03-06T00:07:42.946Z,97.88
2019-03-06T00:08:42.606Z,97.5
2019-03-06T00:09:43.077Z,97.12
2019-03-06T00:10:43.585Z,97.12
2019-03-06T00:11:44.342Z,97.21
2019-03-06T00:12:44.817Z,96.92
2019-03-06T00:13:45.624Z,97.4
2019-03-06T00:14:46.662Z,97.02
2019-03-06T00:15:47.221Z,96.73
2019-03-06T00:16:47.983Z,97.02
2019-03-06T00:17:49.143Z,97.4
2019-03-06T00:18:48.888Z,97.02
2019-03-06T00:19:49.355Z,97.21
2019-03-06T00:20:49.836Z,97.78
2019-03-06T00:21:50.877Z,97.02
2019-03-06T00:22:51.355Z,96.83
2019-03-06T00:23:52.310Z,97.31
2019-03-06T00:24:52.786Z,97.21
2019-03-06T00:25:53.189Z,96.17
2019-03-06T00:26:54.662Z,97.21
2019-03-06T00:27:55.505Z,96.08
2019-03-06T00:28:56.283Z,96.17
2019-03-06T00:29:57.040Z,96.45
2019-03-06T00:30:57.356Z,96.73
2019-03-06T00:31:58.389Z,96.92
2019-03-06T00:32:58.587Z,97.12
2019-03-06T00:33:59.066Z,97.31
2019-03-06T00:35:00.109Z,97.21
2019-03-06T00:36:00.870Z,96.83
2019-03-06T00:37:01.908Z,97.88
2019-03-06T00:38:02.147Z,98.07
2019-03-06T00:39:02.673Z,98.44
2019-03-06T00:40:03.988Z,97.69
2019-03-06T00:41:04.749Z,97.78
2019-03-06T00:42:05.787Z,96.83
2019-03-06T00:43:06.821Z,97.21
2019-03-06T00:44:07.293Z,97.12
2019-03-06T00:45:07.816Z,97.21
2019-03-06T00:46:08.848Z,97.78
2019-03-06T00:47:09.679Z,98.07
2019-03-06T00:48:10.170Z,97.97
2019-03-06T00:49:11.475Z,98.82
2019-03-06T00:50:12.228Z,98.44
2019-03-06T00:51:12.536Z,98.92
2019-03-06T00:52:12.729Z,99.99
2019-03-06T00:53:12.958Z,99.99
2019-03-06T00:54:13.473Z,99.99
2019-03-06T00:55:14.498Z,99.99
2019-03-06T00:56:14.855Z,99.99
2019-03-06T00:57:15.928Z,99.99
2019-03-06T00:58:16.266Z,99.99
2019-03-06T00:59:17.023Z,99.99
2019-03-06T01:00:17.510Z,99.99
2019-03-06T01:01:18.281Z,99.99
2019-03-06T01:02:19.361Z,99.99
2019-03-06T01:03:19.873Z,99.99
2019-03-06T01:04:20.621Z,99.99
2019-03-06T01:05:21.090Z,99.99
2019-03-06T01:06:22.002Z,99.99
2019-03-06T01:07:23.144Z,99.99
2019-03-06T01:08:23.220Z,99.99
2019-03-06T01:09:23.969Z,99.99
2019-03-06T01:10:25.005Z,99.99
2019-03-06T01:11:26.038Z,99.99
2019-03-06T01:12:26.230Z,99.99
2019-03-06T01:13:26.708Z,99.99
2019-03-06T01:14:27.738Z,99.99
2019-03-06T01:15:28.772Z,99.99
2019-03-06T01:16:30.132Z,99.99
2019-03-06T01:17:37.299Z,99.99
2019-03-06T01:17:40.393Z,99.99
2019-03-06T01:18:40.607Z,99.99
2019-03-06T01:19:41.010Z,99.99
2019-03-06T01:20:41.213Z,99.99
2019-03-06T01:21:41.969Z,99.99
2019-03-06T01:22:42.438Z,99.99
2019-03-06T01:23:43.191Z,99.99
2019-03-06T01:24:43.391Z,99.99
2019-03-06T01:25:44.446Z,99.99
2019-03-06T01:26:44.474Z,99.99
2019-03-06T01:27:45.935Z,99.99
2019-03-06T01:28:46.952Z,99.99
2019-03-06T01:29:47.434Z,99.99
2019-03-06T01:30:48.178Z,99.99
2019-03-06T01:31:48.921Z,99.99
2019-03-06T01:32:49.684Z,99.99
2019-03-06T01:33:50.433Z,99.99
2019-03-06T01:34:52.025Z,99.99
2019-03-06T01:35:52.780Z,99.99
2019-03-06T01:36:53.277Z,99.99
2019-03-06T01:37:54.204Z,99.99
2019-03-06T01:38:54.467Z,99.99
2019-03-06T01:39:54.986Z,99.99
2019-03-06T01:40:56.024Z,99.99
2019-03-06T01:41:56.769Z,99.99
2019-03-06T01:42:56.971Z,99.99
2019-03-06T01:44:28.912Z,99.99
2019-03-06T01:45:29.408Z,99.99
2019-03-06T01:46:30.164Z,99.99
2019-03-06T01:47:30.639Z,99.99
2019-03-06T01:48:31.446Z,99.99
2019-03-06T01:49:32.801Z,99.99
2019-03-06T01:50:33.275Z,99.99
2019-03-06T01:51:33.874Z,99.99
2019-03-06T01:52:35.047Z,99.99
2019-03-06T01:53:35.676Z,99.99
2019-03-06T01:54:37.420Z,99.99
2019-03-06T01:55:37.939Z,99.99
2019-03-06T01:56:38.416Z,99.99
2019-03-06T01:57:39.727Z,99.99
2019-03-06T01:58:40.475Z,99.99
2019-03-06T01:59:40.948Z,99.99
2019-03-06T02:00:41.696Z,99.99
2019-03-06T02:01:42.728Z,99.99
2019-03-06T02:02:43.905Z,99.99
2019-03-06T02:03:44.044Z,99.99
2019-03-06T02:04:44.818Z,99.99
2019-03-06T02:05:45.305Z,99.99
2019-03-06T02:06:46.179Z,99.99
2019-03-06T02:07:46.930Z,99.99
2019-03-06T02:08:47.411Z,99.99
2019-03-06T02:09:47.886Z,99.99
2019-03-06T02:10:48.368Z,99.99
2019-03-06T02:11:48.848Z,99.99
2019-03-06T02:12:51.061Z,99.99
2019-03-06T02:13:51.067Z,99.99
2019-03-06T02:14:52.100Z,99.99
2019-03-06T02:15:52.585Z,99.99
2019-03-06T02:16:53.393Z,99.99
2019-03-06T02:17:54.717Z,99.99
2019-03-06T02:18:54.910Z,99.99
2019-03-06T02:19:55.946Z,99.99
2019-03-06T02:20:56.702Z,99.99
2019-03-06T02:21:57.184Z,99.99
2019-03-06T02:22:58.275Z,99.99
2019-03-06T02:23:58.751Z,99.99
2019-03-06T02:24:59.336Z,99.99
2019-03-06T02:26:00.019Z,99.99
2019-03-06T02:27:00.816Z,99.99
2019-03-06T02:28:01.292Z,99.99
2019-03-06T02:29:02.320Z,99.99
2019-03-06T02:30:03.401Z,99.99
2019-03-06T02:31:03.445Z,99.99
2019-03-06T02:32:04.761Z,99.99
2019-03-06T02:33:05.586Z,99.99
2019-03-06T02:34:06.081Z,99.99
2019-03-06T02:35:06.566Z,99.99
2019-03-06T02:36:07.909Z,99.99
2019-03-06T02:37:08.527Z,99.99
2019-03-06T02:38:09.595Z,99.99
2019-03-06T02:39:10.548Z,99.99
2019-03-06T02:40:11.728Z,99.99
2019-03-06T02:41:11.769Z,99.99
2019-03-06T02:42:12.387Z,99.99
2019-03-06T02:43:13.310Z,99.99
2019-03-06T02:44:14.678Z,99.99
2019-03-06T02:45:15.664Z,99.99
2019-03-06T02:46:16.462Z,99.99
2019-03-06T02:47:17.790Z,99.99
2019-03-06T02:48:17.834Z,99.99
2019-03-06T02:49:18.582Z,99.99
2019-03-06T02:50:20.005Z,99.99
2019-03-06T02:51:20.969Z,99.99
2019-03-06T02:52:21.835Z,99.99
2019-03-06T02:53:22.194Z,99.99
2019-03-06T02:54:23.520Z,99.99
2019-03-06T02:55:24.578Z,99.99
2019-03-06T02:56:25.404Z,99.99
2019-03-06T02:57:25.729Z,99.99
2019-03-06T02:58:26.521Z,99.99
2019-03-06T02:59:27.840Z,99.99
2019-03-06T03:00:28.325Z,99.99
2019-03-06T03:01:30.490Z,99.99
2019-03-06T03:02:30.934Z,99.99
2019-03-06T03:03:30.751Z,99.99
2019-03-06T03:04:31.840Z,99.99
2019-03-06T03:05:33.711Z,99.99
2019-03-06T03:06:34.135Z,99.99
2019-03-06T03:07:35.490Z,99.99
2019-03-06T03:08:35.558Z,99.99
2019-03-06T03:09:36.594Z,99.99
2019-03-06T03:10:37.921Z,99.99
2019-03-06T03:11:38.629Z,99.99
2019-03-06T03:12:39.064Z,99.99
2019-03-06T03:13:39.675Z,99.99
2019-03-06T03:14:40.735Z,99.99
2019-03-06T03:15:42.061Z,99.99
2019-03-06T03:16:43.190Z,99.99
2019-03-06T03:17:43.789Z,99.99
2019-03-06T03:18:44.741Z,99.99
2019-03-06T03:19:45.050Z,99.99
2019-03-06T03:20:46.540Z,99.99
2019-03-06T03:21:47.028Z,99.99
2019-03-06T03:22:47.053Z,99.99
2019-03-06T03:23:48.385Z,99.99
2019-03-06T03:24:48.893Z,99.99
2019-03-06T03:25:49.957Z,99.99
2019-03-06T03:26:50.364Z,99.99
2019-03-06T03:27:50.572Z,99.99
2019-03-06T03:28:51.752Z,99.99
2019-03-06T03:29:53.156Z,99.99
2019-03-06T03:30:53.815Z,99.99
2019-03-06T03:31:54.908Z,99.99
2019-03-06T03:32:56.040Z,99.99
2019-03-06T03:33:57.409Z,99.99
2019-03-06T03:34:58.182Z,99.99
2019-03-06T03:35:58.785Z,99.99
2019-03-06T03:36:58.840Z,99.99
2019-03-06T03:37:59.942Z,99.99
2019-03-06T03:39:01.021Z,99.99
2019-03-06T03:40:02.692Z,99.99
2019-03-06T03:41:03.404Z,99.99
2019-03-06T03:42:04.008Z,99.99
2019-03-06T03:43:05.106Z,99.99
2019-03-06T03:44:05.197Z,99.99
2019-03-06T03:45:06.856Z,99.99
2019-03-06T03:46:07.170Z,99.99
2019-03-06T03:47:08.250Z,99.99
2019-03-06T03:48:09.347Z,99.99
2019-03-06T03:49:10.406Z,99.99
2019-03-06T03:50:11.665Z,99.99
2019-03-06T03:51:11.024Z,99.99
2019-03-06T03:52:12.125Z,99.99
2019-03-06T03:53:12.441Z,99.99
2019-03-06T03:54:13.604Z,99.99
2019-03-06T03:55:13.973Z,99.99
2019-03-06T03:56:14.947Z,99.99
2019-03-06T03:57:16.603Z,99.99
2019-03-06T03:58:16.930Z,99.99
2019-03-06T03:59:18.373Z,99.99
2019-03-06T04:00:18.975Z,99.99
2019-03-06T04:01:19.594Z,99.99
2019-03-06T04:02:19.653Z,99.99
2019-03-06T04:03:21.587Z,99.99
2019-03-06T04:04:21.951Z,99.99
2019-03-06T04:05:22.986Z,99.99
2019-03-06T04:06:24.336Z,99.99
2019-03-06T04:07:24.683Z,99.99
2019-03-06T04:08:25.736Z,99.99
2019-03-06T04:09:26.346Z,99.99
2019-03-06T04:10:27.253Z,99.99
2019-03-06T04:11:27.296Z,99.99
2019-03-06T04:12:27.604Z,99.99
2019-03-06T04:13:28.116Z,99.99
2019-03-06T04:14:29.167Z,99.99
2019-03-06T04:15:30.784Z,99.99
2019-03-06T04:16:31.135Z,99.99
2019-03-06T04:17:31.938Z,99.99
2019-03-06T04:18:33.522Z,99.99
2019-03-06T04:19:33.621Z,99.99
2019-03-06T04:20:34.423Z,99.99
2019-03-06T04:21:36.033Z,99.99
2019-03-06T04:22:37.088Z,99.99
2019-03-06T04:23:37.978Z,99.99
2019-03-06T04:24:38.318Z,99.99
2019-03-06T04:25:39.368Z,99.99
2019-03-06T04:26:40.400Z,99.99
2019-03-06T04:27:41.837Z,99.99
2019-03-06T04:28:42.225Z,99.99
2019-03-06T04:29:42.960Z,99.99
2019-03-06T04:30:43.759Z,99.99
2019-03-06T04:31:45.362Z,99.99
2019-03-06T04:32:45.967Z,99.99
2019-03-06T04:33:47.578Z,99.99
2019-03-06T04:34:48.183Z,99.99
2019-03-06T04:35:48.954Z,99.99
2019-03-06T04:36:50.566Z,99.99
2019-03-06T04:37:51.049Z,99.99
2019-03-06T04:38:51.654Z,99.99
2019-03-06T04:39:52.127Z,99.99
2019-03-06T04:40:52.881Z,99.99
2019-03-06T04:41:53.090Z,99.99
2019-03-06T04:42:54.113Z,99.99
2019-03-06T04:43:54.307Z,99.99
2019-03-06T04:44:56.142Z,99.99
2019-03-06T04:45:56.902Z,99.99
2019-03-06T04:46:57.657Z,99.99
2019-03-06T04:47:59.303Z,99.99
2019-03-06T04:49:00.046Z,99.99
2019-03-06T04:50:01.242Z,99.99
2019-03-06T04:51:01.550Z,99.99
2019-03-06T04:52:02.322Z,99.99
2019-03-06T04:53:02.814Z,99.99
2019-03-06T04:54:03.592Z,99.99
2019-03-06T04:55:04.346Z,99.99
2019-03-06T04:56:04.824Z,99.99
2019-03-06T04:57:05.579Z,99.99
2019-03-06T04:58:06.858Z,99.99
2019-03-06T04:59:06.980Z,99.99
2019-03-06T05:00:07.606Z,99.99
2019-03-06T05:01:08.365Z,99.99
2019-03-06T05:02:08.855Z,99.99
2019-03-06T05:03:09.324Z,99.99
2019-03-06T05:04:10.670Z,99.99
2019-03-06T05:05:10.991Z,99.99
2019-03-06T05:06:11.473Z,99.99
2019-03-06T05:07:12.841Z,99.99
2019-03-06T05:08:13.565Z,99.99
2019-03-06T05:09:14.345Z,99.99
2019-03-06T05:10:14.815Z,99.99
2019-03-06T05:11:15.627Z,99.99
2019-03-06T05:12:16.657Z,99.99
2019-03-06T05:13:17.688Z,99.99
2019-03-06T05:14:18.001Z,99.99
2019-03-06T05:15:19.036Z,99.99
2019-03-06T05:16:19.517Z,99.99
2019-03-06T05:17:21.043Z,99.99
2019-03-06T05:18:21.439Z,99.99
2019-03-06T05:19:22.198Z,99.99
2019-03-06T05:20:22.669Z,99.99
2019-03-06T05:21:22.932Z,99.99
2019-03-06T05:22:23.401Z,99.99
2019-03-06T05:23:23.886Z,99.99
2019-03-06T05:24:24.398Z,99.99
2019-03-06T05:25:24.915Z,99.99
2019-03-06T05:26:27.160Z,99.99
2019-03-06T05:27:27.551Z,99.99
2019-03-06T05:28:28.226Z,99.99
2019-03-06T05:29:28.294Z,99.99
2019-03-06T05:30:28.778Z,99.99
2019-03-06T05:31:29.860Z,99.99
2019-03-06T05:32:30.068Z,99.99
2019-03-06T05:33:31.092Z,99.99
2019-03-06T05:34:31.570Z,99.99
2019-03-06T05:35:32.342Z,99.99
2019-03-06T05:36:34.626Z,99.99
2019-03-06T05:37:34.283Z,99.99
2019-03-06T05:38:34.952Z,99.99
2019-03-06T05:39:35.432Z,99.99
2019-03-06T05:40:36.220Z,99.99
2019-03-06T05:41:37.275Z,99.99
2019-03-06T05:42:37.465Z,99.99
2019-03-06T05:43:37.936Z,99.99
2019-03-06T05:44:38.403Z,99.99
2019-03-06T05:45:38.874Z,99.99
2019-03-06T05:46:40.718Z,99.99
2019-03-06T05:47:40.740Z,99.99
2019-03-06T05:48:40.959Z,99.99
2019-03-06T05:49:42.003Z,99.99
2019-03-06T05:50:42.207Z,99.99
2019-03-06T05:51:42.690Z,99.99
2019-03-06T05:52:43.725Z,99.99
2019-03-06T05:53:44.197Z,99.99
2019-03-06T05:54:44.230Z,99.99
2019-03-06T05:55:44.987Z,99.99
2019-03-06T05:56:45.179Z,99.99
2019-03-06T05:57:45.881Z,99.99
2019-03-06T05:58:46.556Z,99.99
2019-03-06T05:59:47.034Z,99.99
2019-03-06T06:00:48.073Z,99.99
2019-03-06T06:01:48.823Z,99.99
2019-03-06T06:02:49.862Z,99.99
2019-03-06T06:03:50.908Z,99.99
2019-03-06T06:04:51.658Z,99.99
2019-03-06T06:05:52.277Z,99.99
2019-03-06T06:06:52.663Z,99.99
2019-03-06T06:07:52.908Z,99.99
2019-03-06T06:08:54.129Z,99.99
2019-03-06T06:09:54.608Z,99.99
2019-03-06T06:10:55.656Z,99.99
2019-03-06T06:11:56.134Z,99.99
2019-03-06T06:12:56.901Z,99.99
2019-03-06T06:13:57.953Z,99.99
2019-03-06T06:14:58.172Z,99.99
2019-03-06T06:15:59.302Z,99.99
2019-03-06T06:17:00.369Z,99.99
2019-03-06T06:18:01.451Z,99.99
2019-03-06T06:19:02.628Z,99.99
2019-03-06T06:20:03.665Z,99.99
2019-03-06T06:21:04.151Z,99.99
2019-03-06T06:22:05.461Z,99.99
2019-03-06T06:23:06.223Z,99.99
2019-03-06T06:24:06.988Z,99.99
2019-03-06T06:25:07.762Z,99.99
2019-03-06T06:26:09.186Z,99.99
2019-03-06T06:27:08.936Z,99.99
2019-03-06T06:28:10.254Z,99.99
2019-03-06T06:29:11.046Z,99.99
2019-03-06T06:30:11.840Z,99.99
2019-03-06T06:31:12.327Z,99.99
2019-03-06T06:32:12.918Z,99.99
2019-03-06T06:33:13.115Z,99.99
2019-03-06T06:34:14.160Z,99.99
2019-03-06T06:35:15.025Z,99.99
2019-03-06T06:36:15.531Z,99.99
2019-03-06T06:37:16.045Z,99.99
2019-03-06T06:38:16.524Z,99.99
2019-03-06T06:39:16.960Z,99.99
2019-03-06T06:40:17.998Z,99.99
2019-03-06T06:41:18.032Z,99.99
2019-03-06T06:42:18.345Z,99.68
2019-03-06T06:43:18.935Z,97.5
2019-03-06T06:44:19.559Z,97.78
2019-03-06T06:45:20.802Z,99.11
2019-03-06T06:46:20.843Z,98.92
2019-03-06T06:47:21.185Z,98.16
2019-03-06T06:48:22.508Z,97.5
2019-03-06T06:49:23.003Z,97.12
2019-03-06T06:50:23.496Z,98.35
2019-03-06T06:51:23.977Z,97.78
2019-03-06T06:52:24.464Z,98.07
2019-03-06T06:53:24.680Z,97.5
2019-03-06T06:54:25.719Z,97.22
2019-03-06T06:55:27.163Z,97.69
2019-03-06T06:56:27.079Z,98.07
2019-03-06T06:57:27.562Z,95.98
2019-03-06T06:58:32.294Z,95.89
2019-03-06T06:59:33.248Z,97.12
2019-03-06T07:00:34.032Z,97.22
2019-03-06T07:01:34.519Z,96.17
2019-03-06T07:02:35.282Z,95.36
2019-03-06T07:03:36.460Z,94.13
2019-03-06T07:04:37.317Z,94.03
2019-03-06T07:05:38.756Z,90.61
2019-03-06T07:06:39.852Z,87.9
2019-03-06T07:07:40.005Z,88.85
2019-03-06T07:08:40.541Z,89.19
2019-03-06T07:09:41.097Z,89.28
2019-03-06T07:10:41.890Z,88.24
2019-03-06T07:11:43.266Z,86.86
2019-03-06T07:12:43.746Z,84.72
2019-03-06T07:13:44.506Z,78.96
2019-03-06T07:14:45.552Z,75.19
2019-03-06T07:15:46.063Z,67.7
2019-03-06T07:16:47.002Z,62.52
2019-03-06T07:17:47.136Z,56.65
2019-03-06T07:18:48.172Z,54.57
2019-03-06T07:19:49.487Z,54.41
2019-03-06T07:20:49.804Z,52.5
2019-03-06T07:21:50.372Z,52.91
2019-03-06T07:22:51.442Z,47.56
2019-03-06T07:23:51.982Z,47.27
2019-03-06T07:24:52.941Z,48.11
2019-03-06T07:25:54.275Z,48.88
2019-03-06T07:26:55.676Z,49.04
2019-03-06T07:27:55.971Z,48.94
2019-03-06T07:28:56.468Z,49.13
2019-03-06T07:29:57.027Z,49.35
2019-03-06T07:30:58.170Z,47.66
2019-03-06T07:31:58.371Z,46.63
2019-03-06T07:32:58.848Z,45.1
2019-03-06T07:34:00.222Z,43.66
2019-03-06T07:35:01.290Z,43.19
2019-03-06T07:36:01.625Z,43.4
2019-03-06T07:37:02.756Z,43.59
2019-03-06T07:38:03.674Z,42.37
2019-03-06T07:39:04.728Z,41.63
2019-03-06T07:40:04.960Z,41.34
2019-03-06T07:41:06.005Z,41.53
2019-03-06T07:42:06.781Z,41.32
2019-03-06T07:43:07.270Z,42.18
2019-03-06T07:44:07.918Z,43.23
2019-03-06T07:45:08.825Z,43.3
2019-03-06T07:46:09.949Z,43.88
2019-03-06T07:47:11.031Z,44.36
2019-03-06T07:48:11.841Z,43.69
2019-03-06T07:49:12.441Z,43.3
2019-03-06T07:50:13.016Z,43.14
2019-03-06T07:51:13.800Z,42.18
2019-03-06T07:52:14.635Z,41.63
2019-03-06T07:53:15.409Z,41.82
2019-03-06T07:54:15.998Z,41.34
2019-03-06T07:55:16.524Z,41.15
2019-03-06T07:56:17.195Z,41.34
2019-03-06T07:57:17.811Z,41.44
2019-03-06T07:58:18.303Z,40.5
2019-03-06T07:59:18.883Z,39.28
2019-03-06T08:00:19.651Z,39.28
2019-03-06T08:01:19.947Z,38.34
2019-03-06T08:02:20.605Z,37.76
2019-03-06T08:03:21.635Z,37.38
2019-03-06T08:04:22.196Z,37.57
2019-03-06T08:05:22.526Z,36.91
2019-03-06T08:06:23.280Z,36.16
2019-03-06T08:07:24.839Z,36.18
2019-03-06T08:08:25.648Z,35.51
2019-03-06T08:09:27.156Z,35.32
2019-03-06T08:10:28.042Z,35.4
2019-03-06T08:11:28.529Z,35.49
2019-03-06T08:12:29.309Z,34.92
2019-03-06T08:13:29.863Z,35.4
2019-03-06T08:14:30.648Z,35.59
2019-03-06T08:15:31.145Z,35.69
2019-03-06T08:16:31.878Z,35.77
2019-03-06T08:17:32.661Z,36.15
2019-03-06T08:18:34.046Z,35.96
2019-03-06T08:19:34.826Z,35.77
2019-03-06T08:20:35.108Z,35.94
2019-03-06T08:21:35.889Z,36.21
2019-03-06T08:22:36.936Z,35.73
2019-03-06T08:23:37.153Z,36.21
2019-03-06T08:24:38.484Z,36.88
2019-03-06T08:25:39.536Z,37.07
2019-03-06T08:26:39.804Z,37.16
2019-03-06T08:27:40.700Z,37.26
2019-03-06T08:28:41.428Z,37.53
2019-03-06T08:29:41.981Z,38.47
2019-03-06T08:30:44.323Z,39.31
2019-03-06T08:31:45.653Z,39.03
2019-03-06T08:32:46.199Z,38.74
2019-03-06T08:33:47.249Z,38.35
2019-03-06T08:34:47.574Z,38.45
2019-03-06T08:35:48.361Z,39.4
2019-03-06T08:36:49.435Z,40.08
2019-03-06T08:37:50.206Z,41.01
2019-03-06T08:38:51.070Z,41.56
2019-03-06T08:39:53.368Z,42.24
2019-03-06T08:40:53.198Z,42.04
2019-03-06T08:41:08.060Z,42.31
2019-03-06T08:41:13.896Z,42.4
2019-03-06T08:42:14.665Z,43.36
2019-03-06T08:43:15.203Z,43.43
2019-03-06T08:44:15.265Z,43.36
2019-03-06T08:45:15.760Z,43.55
2019-03-06T08:46:16.805Z,43.33
2019-03-06T08:47:17.584Z,43.24
2019-03-06T08:48:18.082Z,43.33
2019-03-06T08:49:18.140Z,43.33
2019-03-06T08:50:18.911Z,41.83
2019-03-06T08:51:19.163Z,40.89
2019-03-06T08:52:21.235Z,40.15
2019-03-06T08:53:21.368Z,39.48
2019-03-06T08:54:22.103Z,39.2
2019-03-06T08:55:22.674Z,38.74
2019-03-06T08:56:23.022Z,38.93
2019-03-06T08:57:24.065Z,38.76
2019-03-06T08:58:24.831Z,38.1
2019-03-06T08:59:24.608Z,37.05
2019-03-06T09:00:25.389Z,36.47
2019-03-06T09:01:26.193Z,36.47
2019-03-06T09:02:27.461Z,36.96
2019-03-06T09:03:28.357Z,36.57
2019-03-06T09:04:29.416Z,37.07
2019-03-06T09:05:31.857Z,36.59
2019-03-06T09:06:32.917Z,35.73
2019-03-06T09:07:33.868Z,34.77
2019-03-06T09:08:33.912Z,34.41
2019-03-06T09:09:34.830Z,35.06
2019-03-06T09:10:35.863Z,35.84
2019-03-06T09:11:35.753Z,35.17
2019-03-06T09:12:37.788Z,34.59
2019-03-06T09:13:37.833Z,35.53
2019-03-06T09:14:39.213Z,35.92
2019-03-06T09:15:39.535Z,36.59
2019-03-06T09:16:40.587Z,37.05
2019-03-06T09:17:41.365Z,35.63
2019-03-06T09:18:41.575Z,34.77
2019-03-06T09:19:42.343Z,35.06
2019-03-06T09:20:42.806Z,35.73
2019-03-06T09:21:43.165Z,35.16
2019-03-06T09:22:44.499Z,35.16
2019-03-06T09:23:44.661Z,34.39
2019-03-06T09:24:45.150Z,34.39
2019-03-06T09:25:45.932Z,35.42
2019-03-06T09:26:47.053Z,35.52
2019-03-06T09:27:47.840Z,36.47
2019-03-06T09:28:48.611Z,35.71
2019-03-06T09:29:48.831Z,35.71
2019-03-06T09:30:49.611Z,35.33
2019-03-06T09:31:50.878Z,34.66
2019-03-06T09:32:51.579Z,34.66
2019-03-06T09:33:51.991Z,34.39
2019-03-06T09:34:53.039Z,33.72
2019-03-06T09:35:53.819Z,33.72
2019-03-06T09:36:54.130Z,34.39
2019-03-06T09:37:55.029Z,35.16
2019-03-06T09:38:55.894Z,35.83
2019-03-06T09:39:56.653Z,35.44
2019-03-06T09:40:58.016Z,34.48
2019-03-06T09:41:58.729Z,32.87
2019-03-06T09:42:59.866Z,31.54
2019-03-06T09:44:00.632Z,30.22
2019-03-06T09:45:01.819Z,30.99
2019-03-06T09:46:03.206Z,30.14
2019-03-06T09:47:03.551Z,30.04
2019-03-06T09:48:04.183Z,29.1
2019-03-06T09:49:16.446Z,28.33
2019-03-06T09:50:15.954Z,28.61
2019-03-06T09:51:16.725Z,29
2019-03-06T09:52:17.323Z,28.14
2019-03-06T09:53:18.572Z,27.58
2019-03-06T09:54:20.271Z,27
2019-03-06T09:55:20.605Z,27.86
2019-03-06T09:56:21.388Z,27.28
2019-03-06T09:57:22.763Z,27.48
2019-03-06T09:58:23.759Z,27.27
2019-03-06T09:59:24.068Z,27.37
2019-03-06T10:00:24.970Z,26.6
2019-03-06T10:01:25.865Z,27.17
2019-03-06T10:02:26.469Z,27.26
2019-03-06T10:03:26.965Z,27.27
2019-03-06T10:04:28.391Z,27.16
2019-03-06T10:05:28.554Z,27.06
2019-03-06T10:06:29.398Z,27.83
2019-03-06T10:07:30.183Z,28.04
2019-03-06T10:08:30.956Z,27.37
2019-03-06T10:09:31.451Z,27.56
2019-03-06T10:10:32.484Z,25.94
2019-03-06T10:11:32.982Z,25.94
2019-03-06T10:12:33.747Z,25.85
2019-03-06T10:13:47.095Z,25.67
2019-03-06T10:13:57.891Z,25.18
2019-03-06T10:14:08.124Z,25.09
2019-03-06T10:14:18.249Z,25.47
2019-03-06T10:14:27.518Z,25.38
2019-03-06T10:15:26.558Z,25.57
2019-03-06T10:16:27.337Z,25.95
2019-03-06T10:17:27.847Z,26.05
2019-03-06T10:18:28.063Z,25.09
2019-03-06T10:19:30.952Z,25.85
2019-03-06T10:20:31.770Z,25.74
2019-03-06T10:21:31.839Z,25.64
2019-03-06T10:22:33.105Z,26.5
2019-03-06T10:23:32.915Z,27.16
2019-03-06T10:24:33.550Z,26.79
2019-03-06T10:25:35.183Z,26.23
2019-03-06T10:26:36.103Z,24.9
2019-03-06T10:27:36.398Z,24.14
2019-03-06T10:28:38.391Z,23.86
2019-03-06T10:29:39.228Z,23.58
2019-03-06T10:30:39.871Z,22.91
2019-03-06T10:31:40.470Z,22.63
2019-03-06T10:32:41.342Z,22.15
2019-03-06T10:33:42.575Z,22.05
2019-03-06T10:34:43.280Z,22.05
2019-03-06T10:35:44.645Z,22.34
2019-03-06T10:36:44.713Z,22.32
2019-03-06T10:37:44.966Z,22.41
2019-03-06T10:38:46.633Z,22.41
2019-03-06T10:39:46.851Z,22.79
2019-03-06T10:40:48.283Z,22.78
2019-03-06T10:41:49.040Z,23.26
2019-03-06T10:42:50.022Z,23.65
2019-03-06T10:43:50.996Z,23.74
2019-03-06T10:44:51.687Z,23.46
2019-03-06T10:45:52.088Z,23.38
2019-03-06T10:46:52.778Z,22.8
2019-03-06T10:47:53.138Z,22.71
2019-03-06T10:48:54.397Z,22.61
2019-03-06T10:49:54.392Z,23.37
2019-03-06T10:50:55.379Z,23.47
2019-03-06T10:51:55.744Z,23.28
2019-03-06T10:52:56.703Z,22.32
2019-03-06T10:53:57.397Z,22.05
2019-03-06T10:54:58.809Z,22.05
2019-03-06T10:55:59.952Z,21.27
2019-03-06T10:56:59.953Z,22.44
2019-03-06T10:58:00.285Z,22.05
2019-03-06T10:59:01.573Z,21.47
2019-03-06T11:00:02.405Z,21.37
2019-03-06T11:01:03.241Z,21.58
2019-03-06T11:02:04.008Z,21.09
2019-03-06T11:03:06.752Z,21.86
2019-03-06T11:04:06.602Z,21.96
2019-03-06T11:05:06.257Z,21.09
2019-03-06T11:06:10.924Z,21.08
2019-03-06T11:06:20.113Z,20.97
2019-03-06T11:06:30.714Z,21.26
2019-03-06T11:06:41.161Z,21.36
2019-03-06T11:06:50.048Z,21.07
2019-03-06T11:07:01.558Z,21.17
2019-03-06T11:07:09.935Z,21.07
2019-03-06T11:08:13.240Z,21.35
2019-03-06T11:08:19.954Z,21.06
2019-03-06T11:09:21.914Z,22.12
2019-03-06T11:10:29.639Z,21.54
2019-03-06T11:10:35.341Z,21.54
2019-03-06T11:10:54.628Z,21.15
2019-03-06T11:11:55.568Z,22.39
2019-03-06T11:12:56.504Z,23.07
2019-03-06T11:14:07.085Z,22.88
2019-03-06T11:15:07.892Z,23.36
2019-03-06T11:16:09.073Z,23.84
2019-03-06T11:17:10.254Z,23.18
2019-03-06T11:18:11.632Z,22.69
2019-03-06T11:19:11.611Z,22.39
2019-03-06T11:20:13.168Z,22.02
2019-03-06T11:21:15.735Z,22.02
2019-03-06T11:21:24.012Z,22.02
2019-03-06T11:22:23.791Z,22.12
2019-03-06T11:23:25.751Z,21.92
2019-03-06T11:24:26.621Z,20.97
2019-03-06T11:25:27.385Z,21.64
2019-03-06T11:26:27.764Z,20.97
2019-03-06T11:27:29.924Z,21.15
2019-03-06T11:28:29.134Z,22.02
2019-03-06T11:29:29.319Z,21.15
2019-03-06T11:30:29.760Z,21.53
2019-03-06T11:31:32.544Z,22.11
2019-03-06T11:32:31.910Z,21.82
2019-03-06T11:33:32.215Z,21.92
2019-03-06T11:34:33.810Z,22.5
2019-03-06T11:35:35.232Z,22.42
2019-03-06T11:36:35.785Z,21.54
2019-03-06T11:37:37.631Z,21.26
2019-03-06T11:37:48.598Z,21.06
2019-03-06T11:37:58.324Z,21.35
2019-03-06T11:38:09.820Z,21.06
2019-03-06T11:38:20.306Z,20.97
2019-03-06T11:38:29.798Z,21.06
2019-03-06T11:38:38.743Z,21.06
2019-03-06T11:38:49.005Z,21.15
2019-03-06T11:39:48.847Z,21.92
2019-03-06T11:40:49.441Z,22.2
2019-03-06T11:41:50.272Z,21.92
2019-03-06T11:42:53.181Z,22.01
2019-03-06T11:43:03.223Z,22.01
2019-03-06T11:43:13.549Z,21.73
2019-03-06T11:43:24.140Z,22.12
2019-03-06T11:43:34.613Z,21.44
2019-03-06T11:44:32.645Z,20.57
2019-03-06T11:45:36.414Z,21.25
2019-03-06T11:45:45.656Z,21.25
2019-03-06T11:45:56.176Z,21.15
2019-03-06T11:46:06.483Z,21.35
2019-03-06T11:47:05.616Z,20.48
2019-03-06T11:48:06.280Z,20.67
2019-03-06T11:49:09.068Z,20.67
2019-03-06T11:50:08.429Z,21.06
2019-03-06T11:51:13.197Z,20.38
2019-03-06T11:51:21.281Z,20.47
2019-03-06T11:52:24.343Z,21.04
2019-03-06T11:53:21.325Z,21.8
2019-03-06T11:54:23.811Z,22.56
2019-03-06T11:55:23.791Z,22.08
2019-03-06T11:56:25.580Z,21.71
2019-03-06T11:57:26.076Z,21.61
2019-03-06T11:58:26.602Z,21.51
2019-03-06T11:59:27.597Z,21.32
2019-03-06T12:00:28.058Z,21.8
2019-03-06T12:01:28.379Z,21.32
2019-03-06T12:02:29.773Z,22.09
2019-03-06T12:03:30.227Z,22.19
2019-03-06T12:04:31.371Z,21.52
2019-03-06T12:05:34.758Z,22.08
2019-03-06T12:06:36.355Z,22.08
2019-03-06T12:06:46.554Z,22.38
2019-03-06T12:06:56.962Z,22.28
2019-03-06T12:07:06.801Z,22.56
2019-03-06T12:07:15.013Z,22.28
2019-03-06T12:08:15.126Z,22.56
2019-03-06T12:09:17.163Z,21.8
2019-03-06T12:10:16.606Z,22.08
2019-03-06T12:11:19.108Z,22.56
2019-03-06T12:12:18.865Z,22.58
2019-03-06T12:13:19.437Z,22.48
2019-03-06T12:14:20.023Z,22.3
2019-03-06T12:15:20.590Z,22.11
2019-03-06T12:16:21.219Z,22.2
2019-03-06T12:17:22.141Z,22.3
2019-03-06T12:18:23.017Z,21.33
2019-03-06T12:19:24.514Z,21.42
2019-03-06T12:20:24.943Z,21.72
2019-03-06T12:21:25.793Z,21.62
2019-03-06T12:22:26.383Z,22.2
2019-03-06T12:23:27.669Z,22.2
2019-03-06T12:24:28.023Z,22.3
2019-03-06T12:25:29.668Z,22.39
2019-03-06T12:26:30.889Z,22.67
2019-03-06T12:27:31.081Z,22.29
2019-03-06T12:28:32.404Z,22.09
2019-03-06T12:29:32.482Z,21.91
2019-03-06T12:30:33.244Z,21.81
2019-03-06T12:31:34.227Z,21.42
2019-03-06T12:32:37.299Z,21.61
2019-03-06T12:33:37.247Z,22.48
2019-03-06T12:34:38.086Z,21.52
2019-03-06T12:35:40.987Z,21.14